LFSG 221500Z AUTO 20013KT CAVOK 11/03 Q1027

ElémentsDécodage
LFSG Station météo située sur l'aérodrome de EPINAL Mirecourt
221500Z émis le 22 du mois à 15h00 UTC
AUTO Bulletin édité par un automate
20013KT vent du 200°, 13 noeuds
CAVOK Ceiling And Visibility OK
- Visibilité de 10 Km ou plus
- Pas de nuage au-dessous de 1500m ou au-dessous de l'altitude minimale du secteur la plus élevée (si>1500m) et absence de CB
- pas de temps présent significatif
11/03 température 11°C, point de rosée 03°C
 soit une humidité relative de 58%
Q1027 la pression au niveau de la mer (QNH) est de 1027 hPa